• Join FlightAware (Why Join?)
  • Login
  • US Flag 
10:31AM EDT


 

Airport Tracker/Info


-or-


 

Live Flight TrackerFlight Track Log ✈ OPT429 ✈ 09-Jul-2014 ✈ KOPF - KHTO

Flight Track Log - Related Links

Times and Time Zones

All times are in EDT time to prevent confusion due to time zone crossing. See the OPT429 flight status page for this flight to view local times or setup timezone preferences in your user account.

Time Position Orientation Groundspeed Altitude Reporting Facility
EDT Latitude Longitude Course Direction KTS MPH feet Rate Location/Type
12:30PM 25.9150 -80.2950 295° West 157 181 700  Level Miami Center
12:31PM 25.9350 -80.3428 295° West 195 224 2,600 1,980 Climbing Miami Center
12:32PM 25.9583 -80.4047 293° West 239 275 4,600 1,740 Climbing Miami Center
12:32PM 25.9586 -80.4069 278° West 225 259 4,700 2,220 Climbing Miami Center
12:33PM 26.0014 -80.4617 311° West 260 299 7,400 2,700 Climbing Miami Center
12:34PM 26.0847 -80.4528 North 260 299 10,400 2,580 Climbing Miami Center
12:35PM 26.1594 -80.4322 14° North 273 314 12,800 2,220 Climbing Miami Center
12:36PM 26.2392 -80.4203 North 289 333 15,100 1,980 Climbing Miami Center
12:37PM 26.3267 -80.4611 337° Northwest 304 350 17,000 1,320 Climbing Miami Center
12:38PM 26.4136 -80.4981 339° North 336 387 17,900 1,380 Climbing Miami Center
12:39PM 26.5058 -80.5456 335° Northwest 338 389 19,900 1,740 Climbing Miami Center
12:40PM 26.5908 -80.5869 336° Northwest 334 384 21,600 1,440 Climbing Miami Center
12:41PM 26.6858 -80.6306 338° Northwest 342 394 23,000 840 Climbing Miami Center
12:42PM 26.7772 -80.6750 337° Northwest 369 425 23,400 540 Climbing Miami Center
12:43PM 26.8731 -80.7208 337° Northwest 385 443 24,200 960 Climbing Miami Center
12:44PM 26.9728 -80.7675 337° Northwest 386 444 25,500 1,320 Climbing Miami Center
12:45PM 27.0911 -80.8242 337° Northwest 386 444 27,000 1,260 Climbing Miami Center
12:46PM 27.1906 -80.8703 338° Northwest 385 443 28,200 1,140 Climbing Miami Center
12:47PM 27.2897 -80.9169 337° Northwest 385 443 29,400 1,020 Climbing Miami Center
12:48PM 27.3850 -80.9619 337° Northwest 389 448 30,400 900 Climbing Miami Center
12:49PM 27.5153 -80.9906 349° North 406 467 31,300 720 Climbing Miami Center
12:51PM 27.6339 -81.0036 354° North 426 490 32,000 660 Climbing Miami Center
12:52PM 27.7547 -81.0150 355° North 436 502 32,700 720 Climbing Miami Center
12:53PM 27.8739 -81.0281 354° North 434 499 33,500 720 Climbing Miami Center
12:54PM 27.9992 -81.0428 354° North 443 510 34,300 960 Climbing Miami Center
12:55PM 28.1475 -81.0578 355° North 443 510 35,600 1,140 Climbing Miami Center
12:56PM 28.2736 -81.0425 North 442 509 36,700 1,020 Climbing Miami Center
12:57PM 28.3689 -80.9528 40° Northeast 426 490 37,800 900 Climbing Miami Center
12:58PM 28.4197 -80.8519 60° Northeast 424 488 38,600 900 Climbing Miami Center
12:59PM 28.4819 -80.7194 62° Northeast 419 482 39,700 960 Climbing Miami Center
01:00PM 28.5378 -80.5989 62° Northeast 418 481 40,600 600 Climbing Miami Center
01:01PM 28.5919 -80.4794 63° Northeast 409 471 41,000 180 Climbing Miami Center
01:02PM 28.6500 -80.3550 62° Northeast 418 481 41,000  Level Miami Center
01:03PM 28.7083 -80.2278 62° Northeast 432 497 41,000  Level Miami Center
01:04PM 28.7586 -80.1183 62° Northeast 441 507 41,000  Level Miami Center
01:05PM 28.8594 -79.9961 47° Northeast 450 518 41,000  Level Miami Center
01:06PM 28.9706 -79.9331 26° Northeast 448 516 41,000  Level Miami Center
01:07PM 29.0775 -79.8661 29° Northeast 440 506 41,000  Level Miami Center
01:08PM 29.1825 -79.7989 29° Northeast 437 503 41,000  Level Miami Center
01:09PM 29.2881 -79.7333 28° Northeast 436 502 41,000  Level Miami Center
01:10PM 29.4128 -79.6528 29° Northeast 432 497 41,000  Level Miami Center
01:11PM 29.5169 -79.5853 29° Northeast 432 497 41,000  Level Miami Center
01:12PM 29.6208 -79.5186 29° Northeast 432 497 41,000  Level Miami Center
01:13PM 29.7253 -79.4519 29° Northeast 431 496 41,000  Level Miami Center
01:14PM 29.8394 -79.3767 30° Northeast 429 494 41,000  Level Miami Center
01:15PM 29.9339 -79.3167 29° Northeast 429 494 41,000 -60 Level Miami Center
01:16PM 30.0483 -79.2428 29° Northeast 429 494 40,900  Descending Miami Center
01:17PM 30.1525 -79.1733 30° Northeast 430 495 41,000  Climbing Miami Center
01:19PM 30.2778 -79.0922 29° Northeast 430 495 41,000 120 Level Miami Center
01:20PM 30.3817 -79.0233 30° Northeast 430 495 41,300 480 Climbing Miami Center
01:21PM 30.4914 -78.9714 22° Northeast 429 494 42,100 720 Climbing Miami Center
01:22PM 30.6017 -78.9317 17° North 421 484 42,800 420 Climbing Miami Center
01:23PM 30.7114 -78.8944 16° North 416 479 43,000 60 Climbing Miami Center
01:24PM 30.8211 -78.8550 17° North 415 478 43,000  Level Miami Center
01:25PM 30.9547 -78.8058 18° North 415 478 43,000  Level Miami Center
01:26PM 31.0686 -78.7667 16° North 421 484 43,000  Level Miami Center
01:27PM 31.1919 -78.7206 18° North 413 475 43,000 -60 Level Jacksonville Center
01:28PM 31.3033 -78.6839 16° North 419 482 42,900  Descending Jacksonville Center
01:29PM 31.4147 -78.6400 19° North 413 475 43,000  Climbing Jacksonville Center
01:30PM 31.5258 -78.5983 18° North 413 475 43,000  Level Jacksonville Center
01:31PM 31.6353 -78.5617 16° North 409 471 43,000  Level Jacksonville Center
01:32PM 31.7508 -78.5172 18° North 415 478 43,000  Level Jacksonville Center
01:33PM 31.8619 -78.4775 17° North 415 478 43,000  Level Jacksonville Center
01:34PM 31.9714 -78.4381 17° North 415 478 43,000 -60 Level Jacksonville Center
01:35PM 32.0825 -78.3983 17° North 410 472 42,900  Descending Jacksonville Center
01:36PM 32.1917 -78.3561 18° North 410 472 43,000  Climbing Jacksonville Center
01:37PM 32.3031 -78.3164 17° North 410 472 43,000  Level Jacksonville Center
01:38PM 32.4078 -78.2717 20° North 410 472 43,000  Level Jacksonville Center
01:39PM 32.5150 -78.2317 17° North 405 466 43,000  Level Jacksonville Center
01:40PM 32.6219 -78.1917 17° North 400 460 43,000  Level Jacksonville Center
01:41PM 32.7269 -78.1542 17° North 394 453 43,000  Level Jacksonville Center
01:42PM 32.8342 -78.1164 16° North 394 453 43,000  Level Jacksonville Center
01:43PM 32.9411 -78.0736 19° North 394 453 43,000  Level Jacksonville Center
01:45PM 33.1169 -78.0086 17° North 394 453 43,000  Level Washington Center
01:46PM 33.2200 -77.9669 19° North 386 444 43,000  Level Washington Center
01:47PM 33.3186 -77.9325 16° North 393 452 43,000  Level Washington Center
01:48PM 33.4239 -77.8906 18° North 388 447 43,000  Level Washington Center
01:49PM 33.5289 -77.8536 16° North 388 447 43,000  Level Washington Center
01:50PM 33.6339 -77.8117 18° North 388 447 43,000  Level Washington Center
01:51PM 33.7369 -77.7694 19° North 388 447 43,000 60 Level Washington Center
01:52PM 33.8461 -77.7272 18° North 388 447 43,200 240 Climbing Washington Center
01:53PM 33.9533 -77.6850 18° North 398 458 43,600 300 Climbing Washington Center
01:54PM 34.0603 -77.6475 16° North 398 458 43,900 240 Climbing Washington Center
01:55PM 34.1653 -77.6100 16° North 398 458 44,100 180 Climbing Washington Center
01:56PM 34.2681 -77.5697 18° North 393 452 44,300 180 Climbing Washington Center
01:57PM 34.3689 -77.5319 17° North 388 447 44,500 120 Climbing Washington Center
01:58PM 34.4717 -77.4914 18° North 383 441 44,600 60 Climbing Washington Center
01:59PM 34.5725 -77.4536 17° North 383 441 44,700 60 Climbing Washington Center
02:00PM 34.6694 -77.4028 23° Northeast 378 435 44,800 60 Climbing Washington Center
02:01PM 34.7639 -77.3492 25° Northeast 373 429 44,900  Climbing Washington Center
02:02PM 34.8567 -77.2931 26° Northeast 373 429 44,900  Level Washington Center
02:03PM 34.9533 -77.2417 24° Northeast 373 429 44,900  Level Washington Center
02:04PM 35.0500 -77.1878 25° Northeast 373 429 44,900  Level Washington Center
02:05PM 35.1550 -77.1314 24° Northeast 378 435 44,900  Level Washington Center
02:06PM 35.2539 -77.0775 24° Northeast 378 435 44,900  Level Washington Center
02:07PM 35.3461 -77.0283 24° Northeast 378 435 44,900  Level Washington Center
02:08PM 35.4469 -76.9714 25° Northeast 378 435 44,900  Level Washington Center
02:09PM 35.5458 -76.9169 24° Northeast 378 435 44,900  Level Washington Center
02:10PM 35.6233 -76.8722 25° Northeast 378 435 44,900  Level Washington Center
02:11PM 35.7264 -76.8150 24° Northeast 371 427 44,900  Level Washington Center
02:12PM 35.8228 -76.7628 24° Northeast 376 433 44,900  Level Washington Center
02:13PM 35.9214 -76.7078 24° Northeast 381 438 44,900  Level Washington Center
02:14PM 36.0219 -76.6500 25° Northeast 381 438 44,900  Level Washington Center
02:15PM 36.1206 -76.5947 24° Northeast 381 438 44,900  Level Washington Center
02:16PM 36.2192 -76.5369 25° Northeast 381 438 44,900  Level Washington Center
02:17PM 36.3197 -76.4814 24° Northeast 381 438 44,900  Level Washington Center
02:18PM 36.4181 -76.4231 26° Northeast 381 438 44,900  Level Washington Center
02:19PM 36.5208 -76.3672 24° Northeast 381 438 44,900  Level Washington Center
02:20PM 36.6233 -76.3114 24° Northeast 387 445 44,900  Level Washington Center
02:21PM 36.7342 -76.2397 27° Northeast 395 455 44,900  Level Washington Center
02:22PM 36.8389 -76.1811 24° Northeast 401 461 44,900  Level Washington Center
02:23PM 36.9436 -76.1194 25° Northeast 406 467 44,900  Level Washington Center
02:24PM 37.0564 -76.0656 21° North 418 481 44,900  Level Washington Center
02:25PM 37.1589 -76.0011 27° Northeast 413 475 44,900  Level Washington Center
02:26PM 37.2653 -75.9389 25° Northeast 408 470 44,900  Level Washington Center
02:27PM 37.3719 -75.8767 25° Northeast 408 470 44,900  Level Washington Center
02:28PM 37.4783 -75.8142 25° Northeast 413 475 44,900  Level Washington Center
02:30PM 37.6914 -75.6864 25° Northeast 423 487 44,900  Level Washington Center
02:31PM 37.8019 -75.6233 24° Northeast 423 487 44,900 -420 Level Washington Center
02:32PM 37.9144 -75.5575 25° Northeast 423 487 44,100 -780 Descending Washington Center
02:33PM 38.0272 -75.4889 26° Northeast 434 499 43,400 -720 Descending Washington Center
02:34PM 38.1397 -75.4175 27° Northeast 440 506 42,700 -840 Descending Washington Center
02:35PM 38.2522 -75.3433 27° Northeast 440 506 41,800 -960 Descending Washington Center
02:36PM 38.3500 -75.2767 28° Northeast 440 506 40,900 -960 Descending Washington Center
02:37PM 38.4644 -75.2072 25° Northeast 445 512 39,900 -960 Descending Washington Center
02:38PM 38.5789 -75.1350 26° Northeast 451 519 39,000 -960 Descending Washington Center
02:39PM 38.6911 -75.0464 32° Northeast 451 519 38,100 -900 Descending Washington Center
02:40PM 38.7947 -74.9364 40° Northeast 473 544 37,300 -600 Descending Washington Center
02:41PM 38.8983 -74.8208 41° Northeast 483 556 37,000 -960 Descending Washington Center
02:42PM 39.0036 -74.7075 40° Northeast 488 562 35,500 -1,920 Descending Washington Center
02:43PM 39.1072 -74.5967 40° Northeast 488 562 33,200 -3,000 Descending Washington Center
02:45PM 39.3833 -74.2975 40° Northeast 512 589 25,200 -3,240 Descending New York Center
02:46PM 39.4828 -74.1842 41° Northeast 494 568 22,200 -2,100 Descending New York Center
02:47PM 39.5714 -74.0672 45° Northeast 467 537 21,000 -660 Descending New York Center
02:48PM 39.6314 -73.9681 52° Northeast 452 520 21,000 -420 Level Boston Center
02:49PM 39.7117 -73.8422 50° Northeast 452 520 20,300 -960 Descending Boston Center
02:50PM 39.7922 -73.7161 50° Northeast 453 521 19,100 -1,140 Descending Boston Center
02:51PM 39.8711 -73.5908 51° Northeast 453 521 18,000 -1,020 Descending Boston Center
02:52PM 39.9706 -73.4622 45° Northeast 444 511 17,000 -900 Descending Boston Center
02:53PM 40.0564 -73.3586 43° Northeast 425 489 16,200 -1,380 Descending Boston Center
02:54PM 40.1325 -73.2686 42° Northeast 376 433 14,200 -2,160 Descending Boston Center
02:55PM 40.2100 -73.1772 42° Northeast 374 430 11,900 -2,220 Descending Boston Center
02:56PM 40.2811 -73.0908 43° Northeast 352 405 9,800 -1,440 Descending Boston Center
02:57PM 40.3478 -73.0108 42° Northeast 330 380 9,000 -780 Descending Boston Center
02:58PM 40.4261 -72.9186 42° Northeast 319 367 8,200 -720 Descending Boston Center
02:59PM 40.4892 -72.8417 43° Northeast 315 362 7,600 -660 Descending Boston Center
03:00PM 40.5511 -72.7658 43° Northeast 310 357 6,900 -780 Descending Boston Center
03:02PM 40.6500 -72.6333 45° Northeast 294 338 5,700 -780 Descending New York TRACON
03:03PM 40.7167 -72.5667 37° Northeast 299 344 5,000 -660 Descending New York TRACON
03:04PM 40.7667 -72.4833 52° Northeast 297 342 4,400 -660 Descending New York TRACON
03:05PM 40.8500 -72.4500 17° North 288 331 3,700 -780 Descending New York TRACON
03:06PM 40.9167 -72.4167 21° North 286 329 2,900 -900 Descending New York TRACON
03:07PM 40.9667 -72.3500 45° Northeast 270 311 2,000 -720 Descending New York TRACON
03:08PM 40.9833 -72.2667 75° East 211 243 1,500 -420 Descending New York TRACON
03:09PM 40.9833 -72.2000 90° East 166 191 1,200 -540 Descending New York TRACON
03:10PM 40.9667 -72.2167 217° Southwest 131 151 500 -720 Descending New York TRACON
03:12PM 40.9500 -72.2500 229° Southwest  Level FlightAware Approximate